sensor_id;sensor_type;location;lat;lon;timestamp;pressure;altitude;pressure_sealevel;temperature;humidity
21234;BME280;10774;42.178;26.578;2023-04-29T00:02:05;100232.88;;;7.56;100.00
21234;BME280;10774;42.178;26.578;2023-04-29T00:04:31;100247.75;;;7.81;99.35
21234;BME280;10774;42.178;26.578;2023-04-29T00:06:56;100242.78;;;7.54;99.83
21234;BME280;10774;42.178;26.578;2023-04-29T00:09:21;100241.47;;;7.44;100.00
21234;BME280;10774;42.178;26.578;2023-04-29T00:11:47;100210.97;;;7.48;99.74
21234;BME280;10774;42.178;26.578;2023-04-29T00:14:14;100245.22;;;7.78;99.49
21234;BME280;10774;42.178;26.578;2023-04-29T00:16:40;100227.59;;;7.74;97.98
21234;BME280;10774;42.178;26.578;2023-04-29T00:19:05;100230.19;;;7.56;98.64
21234;BME280;10774;42.178;26.578;2023-04-29T00:21:31;100215.72;;;7.04;100.00
21234;BME280;10774;42.178;26.578;2023-04-29T00:23:57;100247.91;;;7.20;100.00
21234;BME280;10774;42.178;26.578;2023-04-29T00:26:23;100226.50;;;7.01;100.00
21234;BME280;10774;42.178;26.578;2023-04-29T00:28:48;100250.59;;;6.99;100.00
21234;BME280;10774;42.178;26.578;2023-04-29T00:31:13;100249.94;;;6.94;100.00
21234;BME280;10774;42.178;26.578;2023-04-29T00:33:39;100246.72;;;7.06;100.00
21234;BME280;10774;42.178;26.578;2023-04-29T00:36:05;100238.47;;;6.92;100.00
21234;BME280;10774;42.178;26.578;2023-04-29T00:38:31;100244.31;;;7.00;100.00
21234;BME280;10774;42.178;26.578;2023-04-29T00:40:56;100253.28;;;6.99;100.00
21234;BME280;10774;42.178;26.578;2023-04-29T00:43:22;100250.00;;;6.93;100.00
21234;BME280;10774;42.178;26.578;2023-04-29T00:45:47;100225.81;;;6.57;100.00
21234;BME280;10774;42.178;26.578;2023-04-29T00:48:13;100217.25;;;6.48;100.00
21234;BME280;10774;42.178;26.578;2023-04-29T00:50:41;100246.59;;;6.69;100.00
21234;BME280;10774;42.178;26.578;2023-04-29T00:53:08;100248.38;;;6.70;100.00
21234;BME280;10774;42.178;26.578;2023-04-29T00:55:34;100232.75;;;6.61;100.00
21234;BME280;10774;42.178;26.578;2023-04-29T00:58:00;100249.91;;;6.53;100.00
21234;BME280;10774;42.178;26.578;2023-04-29T01:00:27;100246.47;;;6.51;100.00
21234;BME280;10774;42.178;26.578;2023-04-29T01:02:53;100241.88;;;6.13;100.00
21234;BME280;10774;42.178;26.578;2023-04-29T01:05:22;100229.72;;;6.27;100.00
21234;BME280;10774;42.178;26.578;2023-04-29T01:11:09;100238.06;;;6.40;100.00
21234;BME280;10774;42.178;26.578;2023-04-29T01:13:58;100250.66;;;6.15;100.00
21234;BME280;10774;42.178;26.578;2023-04-29T01:16:36;100250.13;;;6.07;100.00
21234;BME280;10774;42.178;26.578;2023-04-29T01:19:10;100247.06;;;6.16;100.00
21234;BME280;10774;42.178;26.578;2023-04-29T01:21:49;100247.03;;;6.38;100.00
21234;BME280;10774;42.178;26.578;2023-04-29T01:24:15;100236.53;;;5.91;100.00
21234;BME280;10774;42.178;26.578;2023-04-29T01:26:52;100235.84;;;5.17;100.00
21234;BME280;10774;42.178;26.578;2023-04-29T01:32:17;100272.97;;;5.20;100.00
21234;BME280;10774;42.178;26.578;2023-04-29T01:34:59;100257.75;;;5.47;100.00
21234;BME280;10774;42.178;26.578;2023-04-29T01:37:34;100252.84;;;5.60;100.00
21234;BME280;10774;42.178;26.578;2023-04-29T01:40:10;100255.38;;;5.63;100.00
21234;BME280;10774;42.178;26.578;2023-04-29T01:42:44;100244.41;;;5.48;100.00
21234;BME280;10774;42.178;26.578;2023-04-29T01:45:10;100252.84;;;5.60;100.00
21234;BME280;10774;42.178;26.578;2023-04-29T01:47:38;100249.69;;;5.72;100.00
21234;BME280;10774;42.178;26.578;2023-04-29T01:50:05;100232.59;;;5.77;100.00
21234;BME280;10774;42.178;26.578;2023-04-29T01:52:30;100225.81;;;5.69;100.00
21234;BME280;10774;42.178;26.578;2023-04-29T01:54:56;100251.84;;;5.84;100.00
21234;BME280;10774;42.178;26.578;2023-04-29T01:57:21;100241.69;;;5.72;100.00
21234;BME280;10774;42.178;26.578;2023-04-29T01:59:47;100230.00;;;5.53;100.00
21234;BME280;10774;42.178;26.578;2023-04-29T02:02:12;100238.84;;;5.76;100.00
21234;BME280;10774;42.178;26.578;2023-04-29T02:04:39;100226.94;;;5.63;100.00
21234;BME280;10774;42.178;26.578;2023-04-29T02:07:05;100240.44;;;5.59;100.00
21234;BME280;10774;42.178;26.578;2023-04-29T02:09:30;100240.59;;;5.77;100.00
21234;BME280;10774;42.178;26.578;2023-04-29T02:11:55;100242.66;;;5.24;100.00
21234;BME280;10774;42.178;26.578;2023-04-29T02:14:21;100223.56;;;5.36;100.00
21234;BME280;10774;42.178;26.578;2023-04-29T02:16:46;100233.25;;;5.61;100.00
21234;BME280;10774;42.178;26.578;2023-04-29T02:19:12;100238.44;;;5.64;100.00
21234;BME280;10774;42.178;26.578;2023-04-29T02:21:37;100217.63;;;5.51;100.00
21234;BME280;10774;42.178;26.578;2023-04-29T02:24:05;100229.00;;;5.33;100.00
21234;BME280;10774;42.178;26.578;2023-04-29T02:26:30;100221.94;;;4.84;100.00
21234;BME280;10774;42.178;26.578;2023-04-29T02:28:57;100236.22;;;5.06;100.00
21234;BME280;10774;42.178;26.578;2023-04-29T02:31:22;100220.44;;;5.25;100.00
21234;BME280;10774;42.178;26.578;2023-04-29T02:33:48;100231.53;;;5.13;100.00
21234;BME280;10774;42.178;26.578;2023-04-29T02:36:13;100236.16;;;5.31;100.00
21234;BME280;10774;42.178;26.578;2023-04-29T02:38:38;100234.09;;;5.39;100.00
21234;BME280;10774;42.178;26.578;2023-04-29T02:41:04;100238.13;;;5.26;100.00
21234;BME280;10774;42.178;26.578;2023-04-29T02:43:29;100231.94;;;5.25;100.00
21234;BME280;10774;42.178;26.578;2023-04-29T02:45:55;100227.44;;;5.28;100.00
21234;BME280;10774;42.178;26.578;2023-04-29T02:48:21;100203.97;;;5.37;100.00
21234;BME280;10774;42.178;26.578;2023-04-29T02:50:46;100209.31;;;5.37;100.00
21234;BME280;10774;42.178;26.578;2023-04-29T02:53:12;100205.75;;;5.38;100.00
21234;BME280;10774;42.178;26.578;2023-04-29T02:55:37;100232.00;;;5.47;100.00
21234;BME280;10774;42.178;26.578;2023-04-29T02:58:03;100224.59;;;5.56;100.00
21234;BME280;10774;42.178;26.578;2023-04-29T03:00:28;100209.09;;;5.43;100.00
21234;BME280;10774;42.178;26.578;2023-04-29T03:02:54;100225.75;;;5.48;100.00
21234;BME280;10774;42.178;26.578;2023-04-29T03:05:19;100211.94;;;5.39;100.00
21234;BME280;10774;42.178;26.578;2023-04-29T03:07:45;100193.38;;;4.90;100.00
21234;BME280;10774;42.178;26.578;2023-04-29T03:10:10;100229.59;;;5.18;100.00
21234;BME280;10774;42.178;26.578;2023-04-29T03:12:36;100206.91;;;5.08;100.00
21234;BME280;10774;42.178;26.578;2023-04-29T03:15:05;100219.16;;;5.35;100.00
21234;BME280;10774;42.178;26.578;2023-04-29T03:17:31;100228.63;;;5.42;100.00
21234;BME280;10774;42.178;26.578;2023-04-29T03:19:57;100232.91;;;5.46;100.00
21234;BME280;10774;42.178;26.578;2023-04-29T03:22:22;100222.63;;;5.14;100.00
21234;BME280;10774;42.178;26.578;2023-04-29T03:24:47;100215.50;;;4.41;100.00
21234;BME280;10774;42.178;26.578;2023-04-29T03:27:13;100231.69;;;4.60;100.00
21234;BME280;10774;42.178;26.578;2023-04-29T03:29:39;100223.97;;;4.52;100.00
21234;BME280;10774;42.178;26.578;2023-04-29T03:32:04;100231.56;;;4.63;100.00
21234;BME280;10774;42.178;26.578;2023-04-29T03:34:29;100247.72;;;4.57;100.00
21234;BME280;10774;42.178;26.578;2023-04-29T03:36:55;100247.28;;;4.44;100.00
21234;BME280;10774;42.178;26.578;2023-04-29T03:39:21;100238.28;;;4.48;100.00
21234;BME280;10774;42.178;26.578;2023-04-29T03:41:47;100247.75;;;4.82;100.00
21234;BME280;10774;42.178;26.578;2023-04-29T03:44:12;100261.41;;;4.71;100.00
21234;BME280;10774;42.178;26.578;2023-04-29T03:46:38;100247.63;;;4.60;100.00
21234;BME280;10774;42.178;26.578;2023-04-29T03:49:03;100240.03;;;4.74;100.00
21234;BME280;10774;42.178;26.578;2023-04-29T03:51:29;100246.22;;;4.99;100.00
21234;BME280;10774;42.178;26.578;2023-04-29T03:53:54;100250.22;;;5.35;100.00
21234;BME280;10774;42.178;26.578;2023-04-29T03:56:22;100269.34;;;5.22;100.00
21234;BME280;10774;42.178;26.578;2023-04-29T03:58:47;100241.25;;;5.37;100.00
21234;BME280;10774;42.178;26.578;2023-04-29T04:01:13;100263.25;;;5.66;100.00
21234;BME280;10774;42.178;26.578;2023-04-29T04:03:39;100267.97;;;5.81;100.00
21234;BME280;10774;42.178;26.578;2023-04-29T04:06:05;100250.13;;;6.07;100.00
21234;BME280;10774;42.178;26.578;2023-04-29T04:08:30;100251.59;;;6.14;100.00
21234;BME280;10774;42.178;26.578;2023-04-29T04:10:55;100248.94;;;6.14;100.00
21234;BME280;10774;42.178;26.578;2023-04-29T04:13:27;100221.19;;;5.97;100.00
21234;BME280;10774;42.178;26.578;2023-04-29T04:15:53;100264.03;;;6.35;100.00
21234;BME280;10774;42.178;26.578;2023-04-29T04:18:18;100257.09;;;6.31;100.00
21234;BME280;10774;42.178;26.578;2023-04-29T04:20:43;100261.25;;;6.38;100.00
21234;BME280;10774;42.178;26.578;2023-04-29T04:23:09;100247.19;;;6.35;100.00
21234;BME280;10774;42.178;26.578;2023-04-29T04:25:34;100247.47;;;6.07;100.00
21234;BME280;10774;42.178;26.578;2023-04-29T04:28:01;100255.34;;;5.86;100.00
21234;BME280;10774;42.178;26.578;2023-04-29T04:30:26;100258.81;;;6.32;100.00
21234;BME280;10774;42.178;26.578;2023-04-29T04:32:51;100248.22;;;6.31;100.00
21234;BME280;10774;42.178;26.578;2023-04-29T04:35:17;100269.72;;;6.70;100.00
21234;BME280;10774;42.178;26.578;2023-04-29T04:37:42;100254.50;;;6.92;100.00
21234;BME280;10774;42.178;26.578;2023-04-29T04:40:08;100253.25;;;6.16;100.00
21234;BME280;10774;42.178;26.578;2023-04-29T04:42:35;100271.44;;;6.71;100.00
21234;BME280;10774;42.178;26.578;2023-04-29T04:45:01;100255.06;;;6.58;100.00
21234;BME280;10774;42.178;26.578;2023-04-29T04:47:26;100263.34;;;6.72;100.00
21234;BME280;10774;42.178;26.578;2023-04-29T04:49:52;100253.66;;;6.90;100.00
21234;BME280;10774;42.178;26.578;2023-04-29T04:52:20;100258.59;;;6.79;99.64
21234;BME280;10774;42.178;26.578;2023-04-29T04:54:46;100245.47;;;6.74;100.00
21234;BME280;10774;42.178;26.578;2023-04-29T04:57:12;100249.78;;;7.18;99.10
21234;BME280;10774;42.178;26.578;2023-04-29T04:59:37;100254.59;;;6.48;98.65
21234;BME280;10774;42.178;26.578;2023-04-29T05:02:03;100266.88;;;6.93;100.00
21234;BME280;10774;42.178;26.578;2023-04-29T05:04:28;100253.75;;;6.89;100.00
21234;BME280;10774;42.178;26.578;2023-04-29T05:06:54;100244.84;;;7.29;100.00
21234;BME280;10774;42.178;26.578;2023-04-29T05:09:19;100238.94;;;7.60;98.17
21234;BME280;10774;42.178;26.578;2023-04-29T05:11:45;100244.91;;;8.03;94.13
21234;BME280;10774;42.178;26.578;2023-04-29T05:14:11;100241.94;;;8.45;90.97
21234;BME280;10774;42.178;26.578;2023-04-29T05:16:37;100240.03;;;8.47;89.32
21234;BME280;10774;42.178;26.578;2023-04-29T05:19:02;100263.19;;;8.83;88.84
21234;BME280;10774;42.178;26.578;2023-04-29T05:21:28;100251.22;;;9.07;85.44
21234;BME280;10774;42.178;26.578;2023-04-29T05:23:53;100267.38;;;9.39;81.26
21234;BME280;10774;42.178;26.578;2023-04-29T05:26:19;100267.34;;;9.23;80.44
21234;BME280;10774;42.178;26.578;2023-04-29T05:28:45;100260.16;;;9.73;93.89
21234;BME280;10774;42.178;26.578;2023-04-29T05:31:10;100269.16;;;10.51;100.00
21234;BME280;10774;42.178;26.578;2023-04-29T05:33:36;100255.91;;;10.47;89.42
21234;BME280;10774;42.178;26.578;2023-04-29T05:36:01;100251.84;;;10.56;78.16
21234;BME280;10774;42.178;26.578;2023-04-29T05:38:27;100263.09;;;10.47;75.38
21234;BME280;10774;42.178;26.578;2023-04-29T05:40:55;100259.06;;;10.40;75.13
21234;BME280;10774;42.178;26.578;2023-04-29T05:43:21;100275.56;;;10.16;78.25
21234;BME280;10774;42.178;26.578;2023-04-29T05:45:46;100250.22;;;10.38;77.76
21234;BME280;10774;42.178;26.578;2023-04-29T05:48:12;100260.03;;;9.91;79.30
21234;BME280;10774;42.178;26.578;2023-04-29T05:50:38;100256.59;;;9.56;83.80
21234;BME280;10774;42.178;26.578;2023-04-29T05:53:03;100265.16;;;9.63;85.85
21234;BME280;10774;42.178;26.578;2023-04-29T05:55:29;100247.47;;;9.92;84.85
21234;BME280;10774;42.178;26.578;2023-04-29T05:57:55;100230.16;;;10.13;83.27
21234;BME280;10774;42.178;26.578;2023-04-29T06:00:20;100246.25;;;10.59;79.51
21234;BME280;10774;42.178;26.578;2023-04-29T06:02:45;100247.22;;;10.28;77.17
21234;BME280;10774;42.178;26.578;2023-04-29T06:05:11;100232.16;;;10.26;77.92
21234;BME280;10774;42.178;26.578;2023-04-29T06:07:38;100239.06;;;10.30;77.18
21234;BME280;10774;42.178;26.578;2023-04-29T06:10:04;100253.75;;;10.07;75.72
21234;BME280;10774;42.178;26.578;2023-04-29T06:12:30;100245.38;;;10.13;78.03
21234;BME280;10774;42.178;26.578;2023-04-29T06:14:56;100241.56;;;10.33;79.41
21234;BME280;10774;42.178;26.578;2023-04-29T06:17:21;100237.75;;;10.05;84.01
21234;BME280;10774;42.178;26.578;2023-04-29T06:19:47;100237.00;;;10.03;84.99
21234;BME280;10774;42.178;26.578;2023-04-29T06:22:12;100246.09;;;10.62;87.74
21234;BME280;10774;42.178;26.578;2023-04-29T06:24:37;100238.69;;;10.82;83.54
21234;BME280;10774;42.178;26.578;2023-04-29T06:27:03;100223.97;;;10.73;79.02
21234;BME280;10774;42.178;26.578;2023-04-29T06:29:29;100230.91;;;10.91;80.92
21234;BME280;10774;42.178;26.578;2023-04-29T06:31:54;100248.13;;;11.17;77.01
21234;BME280;10774;42.178;26.578;2023-04-29T06:34:20;100247.84;;;11.36;72.45
21234;BME280;10774;42.178;26.578;2023-04-29T06:36:46;100241.22;;;11.13;72.10
21234;BME280;10774;42.178;26.578;2023-04-29T06:39:11;100233.84;;;11.45;71.14
21234;BME280;10774;42.178;26.578;2023-04-29T06:41:36;100235.06;;;11.68;68.97
21234;BME280;10774;42.178;26.578;2023-04-29T06:44:02;100241.88;;;12.02;67.17
21234;BME280;10774;42.178;26.578;2023-04-29T06:46:28;100221.72;;;11.67;64.54
21234;BME280;10774;42.178;26.578;2023-04-29T06:48:53;100235.66;;;11.88;65.46
21234;BME280;10774;42.178;26.578;2023-04-29T06:51:19;100224.84;;;12.02;65.83
21234;BME280;10774;42.178;26.578;2023-04-29T06:53:44;100210.38;;;12.17;65.48
21234;BME280;10774;42.178;26.578;2023-04-29T06:56:11;100200.13;;;11.83;65.28
21234;BME280;10774;42.178;26.578;2023-04-29T06:58:36;100213.31;;;12.27;65.54
21234;BME280;10774;42.178;26.578;2023-04-29T07:01:02;100199.56;;;12.32;64.70
21234;BME280;10774;42.178;26.578;2023-04-29T07:03:28;100201.59;;;12.68;62.36
21234;BME280;10774;42.178;26.578;2023-04-29T07:05:57;100219.06;;;12.88;61.36
21234;BME280;10774;42.178;26.578;2023-04-29T07:08:22;100200.31;;;13.12;60.29
21234;BME280;10774;42.178;26.578;2023-04-29T07:11:00;100216.06;;;13.18;59.08
21234;BME280;10774;42.178;26.578;2023-04-29T07:13:26;100214.25;;;12.53;59.20
21234;BME280;10774;42.178;26.578;2023-04-29T07:15:51;100207.63;;;12.84;58.39
21234;BME280;10774;42.178;26.578;2023-04-29T07:18:16;100212.53;;;12.52;58.37
21234;BME280;10774;42.178;26.578;2023-04-29T07:20:42;100211.00;;;12.88;58.86
21234;BME280;10774;42.178;26.578;2023-04-29T07:23:08;100224.22;;;12.91;58.24
21234;BME280;10774;42.178;26.578;2023-04-29T07:25:34;100209.88;;;12.25;58.88
21234;BME280;10774;42.178;26.578;2023-04-29T07:28:00;100193.63;;;12.66;60.06
21234;BME280;10774;42.178;26.578;2023-04-29T07:30:26;100210.06;;;13.27;58.72
21234;BME280;10774;42.178;26.578;2023-04-29T07:32:51;100209.78;;;12.92;57.25
21234;BME280;10774;42.178;26.578;2023-04-29T07:35:17;100182.44;;;12.98;58.44
21234;BME280;10774;42.178;26.578;2023-04-29T07:37:42;100194.06;;;13.11;57.29
21234;BME280;10774;42.178;26.578;2023-04-29T07:40:08;100187.75;;;13.74;55.76
21234;BME280;10774;42.178;26.578;2023-04-29T07:42:34;100195.09;;;14.09;54.60
21234;BME280;10774;42.178;26.578;2023-04-29T07:44:59;100205.31;;;13.80;55.22
21234;BME280;10774;42.178;26.578;2023-04-29T07:47:25;100195.91;;;13.49;53.07
21234;BME280;10774;42.178;26.578;2023-04-29T07:49:50;100191.84;;;13.30;54.12
21234;BME280;10774;42.178;26.578;2023-04-29T07:52:17;100205.06;;;13.33;52.92
21234;BME280;10774;42.178;26.578;2023-04-29T07:54:42;100177.38;;;13.19;52.62
21234;BME280;10774;42.178;26.578;2023-04-29T07:57:08;100173.16;;;13.27;51.25
21234;BME280;10774;42.178;26.578;2023-04-29T07:59:33;100176.56;;;13.55;52.42
21234;BME280;10774;42.178;26.578;2023-04-29T08:01:59;100173.53;;;14.20;50.31
21234;BME280;10774;42.178;26.578;2023-04-29T08:04:24;100187.38;;;14.63;49.32
21234;BME280;10774;42.178;26.578;2023-04-29T08:06:50;100163.94;;;14.75;48.61
21234;BME280;10774;42.178;26.578;2023-04-29T08:09:16;100177.56;;;14.74;47.74
21234;BME280;10774;42.178;26.578;2023-04-29T08:11:42;100170.13;;;15.00;46.49
21234;BME280;10774;42.178;26.578;2023-04-29T08:14:07;100171.63;;;15.26;47.21
21234;BME280;10774;42.178;26.578;2023-04-29T08:16:33;100170.38;;;15.53;46.75
21234;BME280;10774;42.178;26.578;2023-04-29T08:18:58;100152.56;;;15.50;46.51
21234;BME280;10774;42.178;26.578;2023-04-29T08:21:24;100148.13;;;14.47;46.91
21234;BME280;10774;42.178;26.578;2023-04-29T08:23:49;100149.22;;;15.02;46.50
21234;BME280;10774;42.178;26.578;2023-04-29T08:26:15;100154.97;;;14.39;47.18
21234;BME280;10774;42.178;26.578;2023-04-29T08:28:41;100158.41;;;14.18;45.82
21234;BME280;10774;42.178;26.578;2023-04-29T08:31:06;100155.03;;;14.51;45.84
21234;BME280;10774;42.178;26.578;2023-04-29T08:33:37;100142.38;;;14.98;45.48
21234;BME280;10774;42.178;26.578;2023-04-29T08:36:03;100144.81;;;14.89;45.83
21234;BME280;10774;42.178;26.578;2023-04-29T08:38:29;100147.00;;;14.84;43.96
21234;BME280;10774;42.178;26.578;2023-04-29T08:40:55;100141.25;;;15.00;43.25
21234;BME280;10774;42.178;26.578;2023-04-29T08:43:21;100121.47;;;15.22;44.08
21234;BME280;10774;42.178;26.578;2023-04-29T08:45:49;100123.69;;;15.06;43.81
21234;BME280;10774;42.178;26.578;2023-04-29T08:48:16;100126.88;;;15.00;43.89
21234;BME280;10774;42.178;26.578;2023-04-29T08:50:42;100135.25;;;15.41;44.01
21234;BME280;10774;42.178;26.578;2023-04-29T08:53:10;100125.47;;;16.16;44.28
21234;BME280;10774;42.178;26.578;2023-04-29T08:55:45;100129.50;;;16.95;44.23
21234;BME280;10774;42.178;26.578;2023-04-29T08:58:12;100118.00;;;17.43;43.10
21234;BME280;10774;42.178;26.578;2023-04-29T09:00:39;100125.41;;;16.80;41.74
21234;BME280;10774;42.178;26.578;2023-04-29T09:03:30;100116.97;;;16.20;40.36
21234;BME280;10774;42.178;26.578;2023-04-29T09:05:59;100104.63;;;16.48;40.93
21234;BME280;10774;42.178;26.578;2023-04-29T09:08:26;100109.50;;;16.55;41.10
21234;BME280;10774;42.178;26.578;2023-04-29T09:10:52;100113.50;;;15.86;42.39
21234;BME280;10774;42.178;26.578;2023-04-29T09:13:29;100110.63;;;15.44;41.68
21234;BME280;10774;42.178;26.578;2023-04-29T09:15:55;100100.25;;;15.83;41.18
21234;BME280;10774;42.178;26.578;2023-04-29T09:18:46;100104.50;;;15.97;41.18
21234;BME280;10774;42.178;26.578;2023-04-29T09:21:15;100104.91;;;16.45;42.46
21234;BME280;10774;42.178;26.578;2023-04-29T09:23:41;100094.59;;;16.81;40.45
21234;BME280;10774;42.178;26.578;2023-04-29T09:26:07;100091.00;;;16.60;40.10
21234;BME280;10774;42.178;26.578;2023-04-29T09:28:32;100077.50;;;17.21;39.52
21234;BME280;10774;42.178;26.578;2023-04-29T09:30:58;100085.47;;;17.53;39.03
21234;BME280;10774;42.178;26.578;2023-04-29T09:33:23;100080.56;;;16.76;41.28
21234;BME280;10774;42.178;26.578;2023-04-29T09:35:53;100077.84;;;16.55;40.67
21234;BME280;10774;42.178;26.578;2023-04-29T09:38:18;100089.75;;;16.85;39.91
21234;BME280;10774;42.178;26.578;2023-04-29T09:40:45;100080.72;;;16.54;40.71
21234;BME280;10774;42.178;26.578;2023-04-29T09:43:15;100070.66;;;16.86;40.28
21234;BME280;10774;42.178;26.578;2023-04-29T09:45:45;100067.75;;;16.78;40.76
21234;BME280;10774;42.178;26.578;2023-04-29T09:48:12;100066.28;;;17.35;39.41
21234;BME280;10774;42.178;26.578;2023-04-29T09:50:39;100064.28;;;17.37;38.56
21234;BME280;10774;42.178;26.578;2023-04-29T09:53:06;100052.94;;;17.82;38.28
21234;BME280;10774;42.178;26.578;2023-04-29T09:58:30;100042.53;;;18.07;39.06
21234;BME280;10774;42.178;26.578;2023-04-29T10:01:01;100045.22;;;18.36;37.49
21234;BME280;10774;42.178;26.578;2023-04-29T10:03:35;100039.38;;;18.01;38.80
21234;BME280;10774;42.178;26.578;2023-04-29T10:06:03;100043.75;;;17.64;39.57
21234;BME280;10774;42.178;26.578;2023-04-29T10:08:29;100048.72;;;16.68;40.34
21234;BME280;10774;42.178;26.578;2023-04-29T10:10:59;100050.09;;;17.14;40.60
21234;BME280;10774;42.178;26.578;2023-04-29T10:13:26;100030.22;;;18.02;39.92
21234;BME280;10774;42.178;26.578;2023-04-29T10:16:28;100029.78;;;18.36;39.74
21234;BME280;10774;42.178;26.578;2023-04-29T10:18:55;100019.59;;;18.95;38.69
21234;BME280;10774;42.178;26.578;2023-04-29T10:21:27;100017.28;;;19.00;37.48
21234;BME280;10774;42.178;26.578;2023-04-29T10:23:56;100006.34;;;19.10;38.71
21234;BME280;10774;42.178;26.578;2023-04-29T10:26:25;100016.69;;;19.79;36.79
21234;BME280;10774;42.178;26.578;2023-04-29T10:28:53;100014.53;;;20.08;37.90
21234;BME280;10774;42.178;26.578;2023-04-29T10:31:19;100026.69;;;19.61;38.22
21234;BME280;10774;42.178;26.578;2023-04-29T10:33:47;99996.94;;;20.03;36.42
21234;BME280;10774;42.178;26.578;2023-04-29T10:36:14;100021.25;;;19.96;38.28
21234;BME280;10774;42.178;26.578;2023-04-29T10:38:51;100006.19;;;18.08;38.92
21234;BME280;10774;42.178;26.578;2023-04-29T10:41:24;99998.47;;;18.13;41.14
21234;BME280;10774;42.178;26.578;2023-04-29T10:43:54;99995.84;;;18.87;40.11
21234;BME280;10774;42.178;26.578;2023-04-29T10:46:23;100016.00;;;19.49;38.87
21234;BME280;10774;42.178;26.578;2023-04-29T10:48:55;100010.81;;;20.09;38.61
21234;BME280;10774;42.178;26.578;2023-04-29T10:51:32;100003.28;;;20.47;37.63
21234;BME280;10774;42.178;26.578;2023-04-29T10:56:49;100002.59;;;21.05;37.00
21234;BME280;10774;42.178;26.578;2023-04-29T11:02:00;99990.31;;;21.52;35.91
21234;BME280;10774;42.178;26.578;2023-04-29T11:04:26;99998.44;;;21.35;35.50
21234;BME280;10774;42.178;26.578;2023-04-29T11:06:54;99991.38;;;20.48;36.95
21234;BME280;10774;42.178;26.578;2023-04-29T11:09:27;99995.97;;;20.30;37.63
21234;BME280;10774;42.178;26.578;2023-04-29T11:14:26;99999.50;;;20.22;36.58
21234;BME280;10774;42.178;26.578;2023-04-29T11:16:58;99994.31;;;19.12;37.52
21234;BME280;10774;42.178;26.578;2023-04-29T11:19:35;99982.56;;;19.57;39.88
21234;BME280;10774;42.178;26.578;2023-04-29T11:24:56;99983.25;;;20.91;38.59
21234;BME280;10774;42.178;26.578;2023-04-29T11:27:27;99966.91;;;21.49;38.12
21234;BME280;10774;42.178;26.578;2023-04-29T11:29:55;99965.06;;;22.07;37.15
21234;BME280;10774;42.178;26.578;2023-04-29T11:32:23;99968.31;;;22.43;36.33
21234;BME280;10774;42.178;26.578;2023-04-29T11:34:50;99966.56;;;22.50;36.21
21234;BME280;10774;42.178;26.578;2023-04-29T11:37:22;99968.28;;;21.53;36.55
21234;BME280;10774;42.178;26.578;2023-04-29T11:39:48;99970.69;;;21.64;39.13
21234;BME280;10774;42.178;26.578;2023-04-29T11:42:18;99956.28;;;21.30;38.67
21234;BME280;10774;42.178;26.578;2023-04-29T11:44:44;99963.81;;;21.44;38.81
21234;BME280;10774;42.178;26.578;2023-04-29T11:47:10;99950.41;;;21.25;37.56
21234;BME280;10774;42.178;26.578;2023-04-29T11:49:35;99955.47;;;21.03;37.48
21234;BME280;10774;42.178;26.578;2023-04-29T11:52:02;99941.91;;;21.28;37.78
21234;BME280;10774;42.178;26.578;2023-04-29T11:54:28;99952.94;;;22.17;38.12
21234;BME280;10774;42.178;26.578;2023-04-29T11:56:54;99944.41;;;22.12;37.36
21234;BME280;10774;42.178;26.578;2023-04-29T11:59:20;99931.88;;;20.86;37.29
21234;BME280;10774;42.178;26.578;2023-04-29T12:01:50;99943.53;;;20.96;36.24
21234;BME280;10774;42.178;26.578;2023-04-29T12:04:16;99932.97;;;20.59;38.54
21234;BME280;10774;42.178;26.578;2023-04-29T12:06:42;99926.22;;;21.22;36.58
21234;BME280;10774;42.178;26.578;2023-04-29T12:09:08;99929.72;;;21.81;35.98
21234;BME280;10774;42.178;26.578;2023-04-29T12:11:35;99931.75;;;21.87;34.89
21234;BME280;10774;42.178;26.578;2023-04-29T12:14:00;99913.84;;;21.52;34.68
21234;BME280;10774;42.178;26.578;2023-04-29T12:16:32;99923.22;;;21.82;35.20
21234;BME280;10774;42.178;26.578;2023-04-29T12:18:58;99909.03;;;20.79;35.84
21234;BME280;10774;42.178;26.578;2023-04-29T12:21:25;99885.03;;;20.22;35.75
21234;BME280;10774;42.178;26.578;2023-04-29T12:23:51;99880.03;;;20.09;37.45
21234;BME280;10774;42.178;26.578;2023-04-29T12:26:17;99916.44;;;19.65;37.06
21234;BME280;10774;42.178;26.578;2023-04-29T12:28:45;99902.97;;;19.45;37.59
21234;BME280;10774;42.178;26.578;2023-04-29T12:31:13;99893.97;;;19.63;37.25
21234;BME280;10774;42.178;26.578;2023-04-29T12:33:41;99888.13;;;20.01;37.96
21234;BME280;10774;42.178;26.578;2023-04-29T12:36:15;99884.00;;;19.18;38.19
21234;BME280;10774;42.178;26.578;2023-04-29T12:38:42;99893.88;;;20.50;37.39
21234;BME280;10774;42.178;26.578;2023-04-29T12:41:07;99885.66;;;20.42;36.10
21234;BME280;10774;42.178;26.578;2023-04-29T12:43:33;99877.31;;;20.86;36.62
21234;BME280;10774;42.178;26.578;2023-04-29T12:46:06;99876.31;;;20.19;35.84
21234;BME280;10774;42.178;26.578;2023-04-29T12:48:34;99863.09;;;20.32;37.18
21234;BME280;10774;42.178;26.578;2023-04-29T12:51:01;99871.91;;;21.02;37.67
21234;BME280;10774;42.178;26.578;2023-04-29T12:53:28;99871.16;;;21.83;34.98
21234;BME280;10774;42.178;26.578;2023-04-29T12:55:54;99860.19;;;22.00;35.38
21234;BME280;10774;42.178;26.578;2023-04-29T12:58:19;99855.38;;;22.10;34.95
21234;BME280;10774;42.178;26.578;2023-04-29T13:00:45;99873.16;;;22.22;35.60
21234;BME280;10774;42.178;26.578;2023-04-29T13:03:10;99848.25;;;21.84;36.10